Time;durP1;ratioP1;P1;durP2;ratioP2;P2;SDS_P1;SDS_P2;PMS_P1;PMS_P2;Temp;Humidity;BMP_temperature;BMP_pressure;BME280_temperature;BME280_humidity;BME280_pressure;Samples;Min_cycle;Max_cycle;Signal;HPM_P1;HPM_P2
2022/04/18 00:00:11;;;;;;;3.63;2.53;;;;;;;;;;4973239;28;20057;-71
2022/04/18 00:02:37;;;;;;;4.95;2.90;;;;;;;;;;4973006;28;20061;-70
2022/04/18 00:05:03;;;;;;;4.32;3.13;;;;;;;;;;4973471;28;20074;-71
2022/04/18 00:07:29;;;;;;;3.90;3.03;;;;;;;;;;4990510;28;20054;-71
2022/04/18 00:09:55;;;;;;;2.80;2.60;;;;;;;;;;4972552;28;20546;-71
2022/04/18 00:12:21;;;;;;;6.55;3.20;;;;;;;;;;4990781;28;20499;-70
2022/04/18 00:14:46;;;;;;;3.40;2.78;;;;;;;;;;4972572;28;20034;-69
2022/04/18 00:17:12;;;;;;;5.35;3.30;;;;;;;;;;4972971;28;20492;-70
2022/04/18 00:19:38;;;;;;;3.45;3.15;;;;;;;;;;4989961;28;20081;-70
2022/04/18 00:22:04;;;;;;;3.97;3.03;;;;;;;;;;4990338;28;20506;-71
2022/04/18 00:24:30;;;;;;;3.25;2.95;;;;;;;;;;4956908;28;20046;-70
2022/04/18 00:26:56;;;;;;;4.10;2.95;;;;;;;;;;4972820;28;20037;-70
2022/04/18 00:29:22;;;;;;;4.35;3.20;;;;;;;;;;4990532;28;20046;-71
2022/04/18 00:31:48;;;;;;;5.30;3.63;;;;;;;;;;4972748;28;20396;-71
2022/04/18 00:34:14;;;;;;;4.85;2.70;;;;;;;;;;4972955;28;20050;-70
2022/04/18 00:36:40;;;;;;;3.40;3.10;;;;;;;;;;4989913;28;20034;-70
2022/04/18 00:39:06;;;;;;;3.38;2.92;;;;;;;;;;4972521;28;20058;-71
2022/04/18 00:41:32;;;;;;;3.83;3.08;;;;;;;;;;4990016;28;20117;-70
2022/04/18 00:43:59;;;;;;;3.42;2.65;;;;;;;;;;4990058;28;20051;-71
2022/04/18 00:46:25;;;;;;;3.72;3.10;;;;;;;;;;4989816;28;20046;-70
2022/04/18 00:48:51;;;;;;;5.07;3.53;;;;;;;;;;4989917;28;20049;-69
2022/04/18 00:51:19;;;;;;;4.93;3.00;;;;;;;;;;4990191;28;20478;-72
2022/04/18 00:53:44;;;;;;;5.80;3.00;;;;;;;;;;4972273;28;20089;-70
2022/04/18 00:56:12;;;;;;;5.78;3.20;;;;;;;;;;4990054;28;20061;-70
2022/04/18 00:58:39;;;;;;;3.00;2.78;;;;;;;;;;4972169;28;20049;-70
2022/04/18 01:01:05;;;;;;;3.05;2.85;;;;;;;;;;4972590;28;20652;-70
2022/04/18 01:03:31;;;;;;;3.97;3.28;;;;;;;;;;4956287;28;20038;-70
2022/04/18 01:05:57;;;;;;;3.28;2.97;;;;;;;;;;4956664;28;20053;-71
2022/04/18 01:08:25;;;;;;;3.88;3.08;;;;;;;;;;4956363;28;20054;-71
2022/04/18 01:10:51;;;;;;;4.43;3.20;;;;;;;;;;4956128;28;20105;-72
2022/04/18 01:13:17;;;;;;;4.55;3.13;;;;;;;;;;4972379;28;20053;-72
2022/04/18 01:16:03;;;;;;;3.20;2.85;;;;;;;;;;4989523;28;20046;-72
2022/04/18 01:18:48;;;;;;;4.97;3.10;;;;;;;;;;4971972;28;20058;-72
2022/04/18 01:21:44;;;;;;;3.25;2.95;;;;;;;;;;4953256;28;20062;-71
2022/04/18 01:30:00;;;;;;;5.38;3.05;;;;;;;;;;4993272;28;20061;-70
2022/04/18 01:32:26;;;;;;;6.88;3.30;;;;;;;;;;4975830;28;20120;-71
2022/04/18 01:34:53;;;;;;;5.03;3.55;;;;;;;;;;4975621;28;20043;-70
2022/04/18 01:37:19;;;;;;;3.85;3.20;;;;;;;;;;4975647;28;20482;-71
2022/04/18 01:39:45;;;;;;;3.53;3.22;;;;;;;;;;4959273;28;20577;-69
2022/04/18 01:42:11;;;;;;;4.60;3.42;;;;;;;;;;4975754;28;20068;-70
2022/04/18 01:44:37;;;;;;;3.53;3.22;;;;;;;;;;4975447;28;20495;-72
2022/04/18 01:47:03;;;;;;;3.67;3.20;;;;;;;;;;4959608;28;20526;-70
2022/04/18 01:49:29;;;;;;;2.92;2.72;;;;;;;;;;4993059;28;20129;-70
2022/04/18 01:51:56;;;;;;;5.40;3.60;;;;;;;;;;4974477;28;20169;-70
2022/04/18 01:54:23;;;;;;;4.10;3.30;;;;;;;;;;4943497;28;20038;-70
2022/04/18 01:56:48;;;;;;;4.53;3.65;;;;;;;;;;4975110;28;20050;-70
2022/04/18 01:59:14;;;;;;;3.78;3.38;;;;;;;;;;4975154;28;20042;-69
2022/04/18 02:01:41;;;;;;;4.00;3.50;;;;;;;;;;4975044;28;20050;-71
2022/04/18 02:04:07;;;;;;;5.10;3.47;;;;;;;;;;4975112;28;20046;-71
2022/04/18 02:06:33;;;;;;;3.95;3.40;;;;;;;;;;4992421;28;20418;-70
2022/04/18 02:09:00;;;;;;;5.63;3.60;;;;;;;;;;4974817;28;20092;-70
2022/04/18 02:11:26;;;;;;;4.68;3.63;;;;;;;;;;4975307;28;20042;-70
2022/04/18 02:13:53;;;;;;;3.58;3.15;;;;;;;;;;4992123;28;20050;-70
2022/04/18 02:16:19;;;;;;;3.97;3.53;;;;;;;;;;4993041;28;20038;-70
2022/04/18 02:18:47;;;;;;;4.45;4.05;;;;;;;;;;4975074;28;20339;-71
2022/04/18 02:21:13;;;;;;;3.83;3.42;;;;;;;;;;4975286;28;20281;-70
2022/04/18 02:23:39;;;;;;;3.85;3.45;;;;;;;;;;4974528;28;20047;-70
2022/04/18 02:26:05;;;;;;;5.07;3.80;;;;;;;;;;4992331;28;20050;-71
2022/04/18 02:28:31;;;;;;;11.80;4.07;;;;;;;;;;4974513;28;20096;-71
2022/04/18 02:31:02;;;;;;;3.78;3.47;;;;;;;;;;4974892;28;20108;-70
2022/04/18 02:33:28;;;;;;;4.80;4.03;;;;;;;;;;4974523;28;20081;-70
2022/04/18 02:35:54;;;;;;;4.35;4.00;;;;;;;;;;4974392;28;20141;-69
2022/04/18 02:38:23;;;;;;;4.25;3.92;;;;;;;;;;4958539;28;20074;-70
2022/04/18 02:40:49;;;;;;;11.15;4.43;;;;;;;;;;4974470;28;20050;-71
2022/04/18 02:43:15;;;;;;;4.60;3.75;;;;;;;;;;4974746;28;20038;-70
2022/04/18 02:45:49;;;;;;;6.38;3.67;;;;;;;;;;4974240;28;20057;-70
2022/04/18 02:48:20;;;;;;;4.30;3.83;;;;;;;;;;4991790;28;20045;-70
2022/04/18 02:50:53;;;;;;;3.80;3.50;;;;;;;;;;4974243;28;20470;-70
2022/04/18 02:53:24;;;;;;;3.75;3.40;;;;;;;;;;4974155;28;20144;-70
2022/04/18 02:55:54;;;;;;;5.77;4.03;;;;;;;;;;4957925;28;20089;-70
2022/04/18 02:58:21;;;;;;;8.27;3.70;;;;;;;;;;4973996;28;20053;-70
2022/04/18 03:00:47;;;;;;;4.93;4.18;;;;;;;;;;4958023;28;20105;-71
2022/04/18 03:03:14;;;;;;;6.47;4.45;;;;;;;;;;4973957;28;20136;-71
2022/04/18 03:05:41;;;;;;;4.13;3.83;;;;;;;;;;4973869;28;20576;-73
2022/04/18 03:08:08;;;;;;;5.60;4.20;;;;;;;;;;4974203;28;20137;-74
2022/04/18 03:13:23;;;;;;;7.85;4.03;;;;;;;;;;4973914;28;20053;-74
2022/04/18 03:15:49;;;;;;;5.90;4.15;;;;;;;;;;4991151;28;20419;-73
2022/04/18 03:18:15;;;;;;;8.25;4.22;;;;;;;;;;4960144;28;20598;-74
2022/04/18 03:20:42;;;;;;;4.70;4.30;;;;;;;;;;4954412;28;20430;-72
2022/04/18 03:23:08;;;;;;;7.95;4.22;;;;;;;;;;4954554;28;20542;-73
2022/04/18 03:26:10;;;;;;;7.55;4.28;;;;;;;;;;4959528;28;20134;-74
2022/04/18 03:28:45;;;;;;;6.22;3.47;;;;;;;;;;4954041;28;20070;-74
2022/04/18 03:31:12;;;;;;;7.82;3.90;;;;;;;;;;4938680;28;20066;-74
2022/04/18 03:33:38;;;;;;;5.43;4.10;;;;;;;;;;4971734;28;20039;-75
2022/04/18 03:41:34;;;;;;;9.77;4.32;;;;;;;;;;4954318;28;20051;-74
2022/04/18 03:44:00;;;;;;;8.52;3.78;;;;;;;;;;4971099;28;20062;-74
2022/04/18 03:46:26;;;;;;;6.30;3.88;;;;;;;;;;4937653;28;20434;-74
2022/04/18 03:48:52;;;;;;;4.72;3.72;;;;;;;;;;4953766;28;20454;-74
2022/04/18 03:51:18;;;;;;;3.83;3.40;;;;;;;;;;4938292;28;20050;-73
2022/04/18 03:53:44;;;;;;;10.35;4.43;;;;;;;;;;4953654;28;20047;-74
2022/04/18 03:56:10;;;;;;;6.55;3.60;;;;;;;;;;4938029;28;20046;-74
2022/04/18 03:59:05;;;;;;;3.90;3.30;;;;;;;;;;4951479;28;20055;-74
2022/04/18 04:01:35;;;;;;;7.00;3.65;;;;;;;;;;4953996;28;20054;-74
2022/04/18 04:04:01;;;;;;;4.30;3.90;;;;;;;;;;4937742;28;20043;-73
2022/04/18 04:06:27;;;;;;;4.60;3.25;;;;;;;;;;4953810;28;20518;-74
2022/04/18 04:08:54;;;;;;;3.72;3.05;;;;;;;;;;4953009;28;20039;-74
2022/04/18 04:11:26;;;;;;;3.90;3.60;;;;;;;;;;4953384;28;20054;-74
2022/04/18 04:13:52;;;;;;;3.53;3.22;;;;;;;;;;4952629;28;20039;-74
2022/04/18 04:16:19;;;;;;;6.15;3.42;;;;;;;;;;4937407;28;20566;-72
2022/04/18 04:18:49;;;;;;;9.55;3.58;;;;;;;;;;4970392;28;20046;-73
2022/04/18 04:21:16;;;;;;;3.90;3.60;;;;;;;;;;4972363;28;20046;-74
2022/04/18 04:23:42;;;;;;;6.82;4.05;;;;;;;;;;4955658;28;20189;-73
2022/04/18 04:26:28;;;;;;;4.63;3.30;;;;;;;;;;4972810;28;20054;-76
2022/04/18 04:28:54;;;;;;;4.50;3.50;;;;;;;;;;4955440;28;20192;-75
2022/04/18 04:31:31;;;;;;;5.03;3.55;;;;;;;;;;4960613;28;20039;-75
2022/04/18 04:33:59;;;;;;;7.93;3.80;;;;;;;;;;4969562;28;20165;-74
2022/04/18 04:36:26;;;;;;;3.80;3.47;;;;;;;;;;4959122;28;20034;-76
2022/04/18 04:38:55;;;;;;;4.07;3.78;;;;;;;;;;4955375;28;20077;-75
2022/04/18 04:41:28;;;;;;;5.53;3.92;;;;;;;;;;4984272;28;20050;-73
2022/04/18 04:43:57;;;;;;;8.23;4.00;;;;;;;;;;4958646;28;20072;-74
2022/04/18 04:46:33;;;;;;;4.63;3.03;;;;;;;;;;4972015;28;20050;-73
2022/04/18 04:49:09;;;;;;;3.75;3.45;;;;;;;;;;4971801;28;20464;-74
2022/04/18 04:51:39;;;;;;;6.50;4.25;;;;;;;;;;4940355;28;20053;-72
2022/04/18 04:54:05;;;;;;;4.30;4.00;;;;;;;;;;4987457;28;20045;-73
2022/04/18 04:56:35;;;;;;;6.55;5.35;;;;;;;;;;4992092;28;20046;-72
2022/04/18 04:59:03;;;;;;;5.72;4.15;;;;;;;;;;4994566;28;20136;-73
2022/04/18 05:01:30;;;;;;;5.15;4.75;;;;;;;;;;4993077;28;20041;-73
2022/04/18 05:04:04;;;;;;;10.00;4.63;;;;;;;;;;4992586;28;20042;-73
2022/04/18 05:06:32;;;;;;;5.13;4.70;;;;;;;;;;4993435;28;20128;-73
2022/04/18 05:08:59;;;;;;;5.32;3.88;;;;;;;;;;4970749;28;20053;-73
2022/04/18 05:11:26;;;;;;;4.28;3.88;;;;;;;;;;4973653;28;20046;-75
2022/04/18 05:13:54;;;;;;;9.25;4.13;;;;;;;;;;4973439;28;20166;-75
2022/04/18 05:16:43;;;;;;;5.20;3.92;;;;;;;;;;4977293;28;20058;-74
2022/04/18 05:19:38;;;;;;;5.60;4.47;;;;;;;;;;4980806;28;20055;-75
2022/04/18 05:22:22;;;;;;;6.10;4.65;;;;;;;;;;4965943;28;20042;-76
2022/04/18 05:24:49;;;;;;;3.90;3.50;;;;;;;;;;4975061;28;20141;-76
2022/04/18 05:27:21;;;;;;;16.95;6.63;;;;;;;;;;4975490;28;20093;-75
2022/04/18 05:29:50;;;;;;;4.10;3.78;;;;;;;;;;4961902;28;20051;-72
2022/04/18 05:32:16;;;;;;;7.35;3.75;;;;;;;;;;4958862;28;20030;-75
2022/04/18 05:34:50;;;;;;;4.63;3.70;;;;;;;;;;4959841;28;20072;-73
2022/04/18 05:37:28;;;;;;;3.78;3.47;;;;;;;;;;4957471;28;20043;-72
2022/04/18 05:40:08;;;;;;;3.28;3.00;;;;;;;;;;4962175;28;20058;-72
2022/04/18 05:42:36;;;;;;;3.42;3.13;;;;;;;;;;4975225;28;20511;-71
2022/04/18 05:45:08;;;;;;;3.70;3.40;;;;;;;;;;4968283;28;20423;-73
2022/04/18 05:47:34;;;;;;;3.70;3.35;;;;;;;;;;4974875;28;20502;-72
2022/04/18 05:50:03;;;;;;;3.03;2.83;;;;;;;;;;4973404;28;20129;-72
2022/04/18 05:52:31;;;;;;;3.00;2.83;;;;;;;;;;4974816;28;20414;-72
2022/04/18 05:55:06;;;;;;;3.55;3.08;;;;;;;;;;4974365;28;20125;-73
2022/04/18 05:57:32;;;;;;;3.33;3.03;;;;;;;;;;4974757;28;20104;-72
2022/04/18 06:00:02;;;;;;;3.17;2.78;;;;;;;;;;4973880;28;20525;-75
2022/04/18 06:02:42;;;;;;;5.30;3.13;;;;;;;;;;4958480;28;20101;-76
2022/04/18 06:05:12;;;;;;;3.50;3.22;;;;;;;;;;4974706;28;20140;-77
2022/04/18 06:07:39;;;;;;;4.07;3.38;;;;;;;;;;4973979;28;20149;-75
2022/04/18 06:10:23;;;;;;;2.90;2.70;;;;;;;;;;4992019;28;20038;-77
2022/04/18 06:12:59;;;;;;;2.78;2.58;;;;;;;;;;4974207;28;20546;-75
2022/04/18 06:15:25;;;;;;;3.95;2.88;;;;;;;;;;4957710;28;20045;-75
2022/04/18 23:38:23;;;;;;;5.00;4.57;;;;;;;;;;4982991;28;20141;-75
2022/04/18 23:43:33;;;;;;;6.60;4.82;;;;;;;;;;4990841;28;20125;-74
2022/04/18 23:46:00;;;;;;;7.00;6.10;;;;;;;;;;4991234;28;20134;-75
2022/04/18 23:48:26;;;;;;;5.97;5.22;;;;;;;;;;4973173;28;20054;-76
2022/04/18 23:50:52;;;;;;;12.35;5.70;;;;;;;;;;4973416;28;20044;-74
2022/04/18 23:53:25;;;;;;;6.03;5.43;;;;;;;;;;4973316;28;20507;-74
2022/04/18 23:55:52;;;;;;;8.25;5.70;;;;;;;;;;4973469;28;20035;-75
2022/04/18 23:58:18;;;;;;;8.73;6.88;;;;;;;;;;4988957;28;20073;-75
